sensor_id;sensor_type;location;lat;lon;timestamp;P1;durP1;ratioP1;P2;durP2;ratioP2
21458;SDS011;10891;49.350;19.386;2023-12-14T00:00:44;154.30;;;59.10;;
21458;SDS011;10891;49.350;19.386;2023-12-14T00:03:11;131.23;;;51.47;;
21458;SDS011;10891;49.350;19.386;2023-12-14T00:05:39;109.85;;;45.03;;
21458;SDS011;10891;49.350;19.386;2023-12-14T00:08:06;125.30;;;50.90;;
21458;SDS011;10891;49.350;19.386;2023-12-14T00:10:34;174.20;;;66.43;;
21458;SDS011;10891;49.350;19.386;2023-12-14T00:13:01;142.95;;;56.22;;
21458;SDS011;10891;49.350;19.386;2023-12-14T00:15:29;143.10;;;54.72;;
21458;SDS011;10891;49.350;19.386;2023-12-14T00:17:57;184.32;;;68.75;;
21458;SDS011;10891;49.350;19.386;2023-12-14T00:20:24;153.55;;;58.38;;
21458;SDS011;10891;49.350;19.386;2023-12-14T00:22:51;133.20;;;54.05;;
21458;SDS011;10891;49.350;19.386;2023-12-14T00:25:18;144.95;;;56.35;;
21458;SDS011;10891;49.350;19.386;2023-12-14T00:27:47;159.75;;;63.53;;
21458;SDS011;10891;49.350;19.386;2023-12-14T00:30:14;180.50;;;69.20;;
21458;SDS011;10891;49.350;19.386;2023-12-14T00:32:41;236.68;;;86.18;;
21458;SDS011;10891;49.350;19.386;2023-12-14T00:35:08;215.15;;;78.85;;
21458;SDS011;10891;49.350;19.386;2023-12-14T00:37:35;190.27;;;78.60;;
21458;SDS011;10891;49.350;19.386;2023-12-14T00:40:03;182.30;;;75.57;;
21458;SDS011;10891;49.350;19.386;2023-12-14T00:42:30;197.02;;;80.95;;
21458;SDS011;10891;49.350;19.386;2023-12-14T00:44:58;182.30;;;75.00;;
21458;SDS011;10891;49.350;19.386;2023-12-14T00:47:26;208.27;;;84.35;;
21458;SDS011;10891;49.350;19.386;2023-12-14T00:49:53;210.35;;;84.85;;
21458;SDS011;10891;49.350;19.386;2023-12-14T00:52:20;221.98;;;83.93;;
21458;SDS011;10891;49.350;19.386;2023-12-14T00:54:47;187.40;;;77.90;;
21458;SDS011;10891;49.350;19.386;2023-12-14T00:57:14;206.57;;;77.68;;
21458;SDS011;10891;49.350;19.386;2023-12-14T00:59:41;203.80;;;76.82;;
21458;SDS011;10891;49.350;19.386;2023-12-14T01:02:10;187.52;;;68.35;;
21458;SDS011;10891;49.350;19.386;2023-12-14T01:04:37;196.18;;;67.70;;
21458;SDS011;10891;49.350;19.386;2023-12-14T01:07:04;169.25;;;60.80;;
21458;SDS011;10891;49.350;19.386;2023-12-14T01:09:31;139.15;;;50.63;;
21458;SDS011;10891;49.350;19.386;2023-12-14T01:11:59;134.00;;;49.00;;
21458;SDS011;10891;49.350;19.386;2023-12-14T01:14:26;147.15;;;56.03;;
21458;SDS011;10891;49.350;19.386;2023-12-14T01:16:53;141.20;;;54.97;;
21458;SDS011;10891;49.350;19.386;2023-12-14T01:19:21;150.73;;;58.97;;
21458;SDS011;10891;49.350;19.386;2023-12-14T01:21:50;140.50;;;53.42;;
21458;SDS011;10891;49.350;19.386;2023-12-14T01:24:17;139.73;;;50.53;;
21458;SDS011;10891;49.350;19.386;2023-12-14T01:26:44;141.38;;;52.25;;
21458;SDS011;10891;49.350;19.386;2023-12-14T01:29:11;118.75;;;49.25;;
21458;SDS011;10891;49.350;19.386;2023-12-14T01:31:38;123.20;;;48.45;;
21458;SDS011;10891;49.350;19.386;2023-12-14T01:34:06;132.07;;;48.67;;
21458;SDS011;10891;49.350;19.386;2023-12-14T01:36:35;133.88;;;48.53;;
21458;SDS011;10891;49.350;19.386;2023-12-14T01:39:02;125.82;;;50.58;;
21458;SDS011;10891;49.350;19.386;2023-12-14T01:41:30;115.90;;;46.72;;
21458;SDS011;10891;49.350;19.386;2023-12-14T01:43:57;117.50;;;47.50;;
21458;SDS011;10891;49.350;19.386;2023-12-14T01:46:25;114.95;;;45.22;;
21458;SDS011;10891;49.350;19.386;2023-12-14T01:48:52;383.25;;;105.95;;
21458;SDS011;10891;49.350;19.386;2023-12-14T01:51:19;212.93;;;73.15;;
21458;SDS011;10891;49.350;19.386;2023-12-14T01:53:47;222.23;;;72.90;;
21458;SDS011;10891;49.350;19.386;2023-12-14T01:56:14;220.48;;;79.68;;
21458;SDS011;10891;49.350;19.386;2023-12-14T01:58:42;232.80;;;81.65;;
21458;SDS011;10891;49.350;19.386;2023-12-14T02:01:11;190.85;;;67.43;;
21458;SDS011;10891;49.350;19.386;2023-12-14T02:03:43;179.10;;;64.63;;
21458;SDS011;10891;49.350;19.386;2023-12-14T02:06:11;195.98;;;66.78;;
21458;SDS011;10891;49.350;19.386;2023-12-14T02:08:38;213.38;;;75.22;;
21458;SDS011;10891;49.350;19.386;2023-12-14T02:11:06;204.00;;;77.47;;
21458;SDS011;10891;49.350;19.386;2023-12-14T02:13:33;195.88;;;70.60;;
21458;SDS011;10891;49.350;19.386;2023-12-14T02:16:01;194.73;;;70.82;;
21458;SDS011;10891;49.350;19.386;2023-12-14T02:18:28;206.77;;;74.22;;
21458;SDS011;10891;49.350;19.386;2023-12-14T02:20:55;199.88;;;72.25;;
21458;SDS011;10891;49.350;19.386;2023-12-14T02:23:23;184.85;;;68.20;;
21458;SDS011;10891;49.350;19.386;2023-12-14T02:25:51;180.23;;;66.28;;
21458;SDS011;10891;49.350;19.386;2023-12-14T02:28:18;206.38;;;66.82;;
21458;SDS011;10891;49.350;19.386;2023-12-14T02:30:45;198.82;;;69.32;;
21458;SDS011;10891;49.350;19.386;2023-12-14T02:33:12;194.13;;;71.22;;
21458;SDS011;10891;49.350;19.386;2023-12-14T02:35:39;210.02;;;70.60;;
21458;SDS011;10891;49.350;19.386;2023-12-14T02:38:07;218.52;;;70.32;;
21458;SDS011;10891;49.350;19.386;2023-12-14T02:40:35;196.00;;;65.57;;
21458;SDS011;10891;49.350;19.386;2023-12-14T02:43:02;196.80;;;66.68;;
21458;SDS011;10891;49.350;19.386;2023-12-14T02:45:29;196.68;;;66.32;;
21458;SDS011;10891;49.350;19.386;2023-12-14T02:47:57;184.55;;;64.90;;
21458;SDS011;10891;49.350;19.386;2023-12-14T02:50:24;169.73;;;57.88;;
21458;SDS011;10891;49.350;19.386;2023-12-14T02:52:51;157.15;;;55.17;;
21458;SDS011;10891;49.350;19.386;2023-12-14T02:55:18;145.50;;;51.10;;
21458;SDS011;10891;49.350;19.386;2023-12-14T02:57:46;138.45;;;49.42;;
21458;SDS011;10891;49.350;19.386;2023-12-14T03:00:14;128.32;;;47.53;;
21458;SDS011;10891;49.350;19.386;2023-12-14T03:02:41;128.27;;;45.83;;
21458;SDS011;10891;49.350;19.386;2023-12-14T03:05:08;110.50;;;42.25;;
21458;SDS011;10891;49.350;19.386;2023-12-14T03:07:35;111.85;;;43.40;;
21458;SDS011;10891;49.350;19.386;2023-12-14T03:10:03;118.20;;;46.05;;
21458;SDS011;10891;49.350;19.386;2023-12-14T03:12:30;144.20;;;51.50;;
21458;SDS011;10891;49.350;19.386;2023-12-14T03:14:59;141.32;;;50.25;;
21458;SDS011;10891;49.350;19.386;2023-12-14T03:17:26;132.90;;;48.30;;
21458;SDS011;10891;49.350;19.386;2023-12-14T03:19:53;126.10;;;48.63;;
21458;SDS011;10891;49.350;19.386;2023-12-14T03:22:21;143.63;;;52.08;;
21458;SDS011;10891;49.350;19.386;2023-12-14T03:24:48;179.30;;;72.55;;
21458;SDS011;10891;49.350;19.386;2023-12-14T03:27:15;170.65;;;66.75;;
21458;SDS011;10891;49.350;19.386;2023-12-14T03:29:42;158.05;;;63.63;;
21458;SDS011;10891;49.350;19.386;2023-12-14T03:32:10;160.90;;;59.88;;
21458;SDS011;10891;49.350;19.386;2023-12-14T03:34:38;175.05;;;64.80;;
21458;SDS011;10891;49.350;19.386;2023-12-14T03:37:05;169.88;;;67.68;;
21458;SDS011;10891;49.350;19.386;2023-12-14T03:39:33;184.85;;;67.22;;
21458;SDS011;10891;49.350;19.386;2023-12-14T03:42:00;186.00;;;68.60;;
21458;SDS011;10891;49.350;19.386;2023-12-14T03:44:27;130.30;;;53.33;;
21458;SDS011;10891;49.350;19.386;2023-12-14T03:46:54;136.55;;;53.00;;
21458;SDS011;10891;49.350;19.386;2023-12-14T03:49:24;153.55;;;55.42;;
21458;SDS011;10891;49.350;19.386;2023-12-14T03:51:51;162.48;;;58.92;;
21458;SDS011;10891;49.350;19.386;2023-12-14T03:54:18;194.80;;;67.40;;
21458;SDS011;10891;49.350;19.386;2023-12-14T03:56:45;206.43;;;66.55;;
21458;SDS011;10891;49.350;19.386;2023-12-14T03:59:12;178.68;;;61.28;;
21458;SDS011;10891;49.350;19.386;2023-12-14T04:01:40;172.50;;;60.88;;
21458;SDS011;10891;49.350;19.386;2023-12-14T04:04:07;150.82;;;57.40;;
21458;SDS011;10891;49.350;19.386;2023-12-14T04:06:35;153.63;;;52.65;;
21458;SDS011;10891;49.350;19.386;2023-12-14T04:09:02;126.53;;;47.17;;
21458;SDS011;10891;49.350;19.386;2023-12-14T04:11:30;115.80;;;44.72;;
21458;SDS011;10891;49.350;19.386;2023-12-14T04:13:57;122.45;;;44.38;;
21458;SDS011;10891;49.350;19.386;2023-12-14T04:16:24;103.05;;;38.42;;
21458;SDS011;10891;49.350;19.386;2023-12-14T04:18:51;116.22;;;41.88;;
21458;SDS011;10891;49.350;19.386;2023-12-14T04:21:18;99.75;;;40.92;;
21458;SDS011;10891;49.350;19.386;2023-12-14T04:23:47;116.78;;;42.38;;
21458;SDS011;10891;49.350;19.386;2023-12-14T04:26:14;99.55;;;39.67;;
21458;SDS011;10891;49.350;19.386;2023-12-14T04:28:41;97.38;;;38.35;;
21458;SDS011;10891;49.350;19.386;2023-12-14T04:31:11;98.10;;;38.85;;
21458;SDS011;10891;49.350;19.386;2023-12-14T04:33:38;100.57;;;39.63;;
21458;SDS011;10891;49.350;19.386;2023-12-14T04:36:05;93.28;;;38.00;;
21458;SDS011;10891;49.350;19.386;2023-12-14T04:38:32;87.82;;;36.60;;
21458;SDS011;10891;49.350;19.386;2023-12-14T04:41:01;86.05;;;35.70;;
21458;SDS011;10891;49.350;19.386;2023-12-14T04:43:28;76.97;;;34.45;;
21458;SDS011;10891;49.350;19.386;2023-12-14T04:45:57;82.25;;;34.75;;
21458;SDS011;10891;49.350;19.386;2023-12-14T04:48:24;74.80;;;31.27;;
21458;SDS011;10891;49.350;19.386;2023-12-14T04:50:51;72.40;;;33.45;;
21458;SDS011;10891;49.350;19.386;2023-12-14T04:53:18;97.05;;;37.13;;
21458;SDS011;10891;49.350;19.386;2023-12-14T04:55:45;85.50;;;34.53;;
21458;SDS011;10891;49.350;19.386;2023-12-14T04:58:14;63.97;;;29.05;;
21458;SDS011;10891;49.350;19.386;2023-12-14T05:00:41;58.90;;;26.83;;
21458;SDS011;10891;49.350;19.386;2023-12-14T05:03:08;55.80;;;24.80;;
21458;SDS011;10891;49.350;19.386;2023-12-14T05:05:36;60.83;;;23.52;;
21458;SDS011;10891;49.350;19.386;2023-12-14T05:08:03;56.15;;;23.42;;
21458;SDS011;10891;49.350;19.386;2023-12-14T05:10:30;57.15;;;26.60;;
21458;SDS011;10891;49.350;19.386;2023-12-14T05:12:57;56.63;;;25.60;;
21458;SDS011;10891;49.350;19.386;2023-12-14T05:15:26;73.55;;;31.00;;
21458;SDS011;10891;49.350;19.386;2023-12-14T05:17:53;110.90;;;37.90;;
21458;SDS011;10891;49.350;19.386;2023-12-14T05:20:19;96.05;;;36.50;;
21458;SDS011;10891;49.350;19.386;2023-12-14T05:22:46;77.40;;;32.88;;
21458;SDS011;10891;49.350;19.386;2023-12-14T05:25:13;72.40;;;31.08;;
21458;SDS011;10891;49.350;19.386;2023-12-14T05:27:41;54.35;;;27.48;;
21458;SDS011;10891;49.350;19.386;2023-12-14T05:30:08;65.57;;;29.42;;
21458;SDS011;10891;49.350;19.386;2023-12-14T05:32:37;104.82;;;39.15;;
21458;SDS011;10891;49.350;19.386;2023-12-14T05:35:04;84.55;;;32.03;;
21458;SDS011;10891;49.350;19.386;2023-12-14T05:37:31;84.15;;;31.95;;
21458;SDS011;10891;49.350;19.386;2023-12-14T05:39:58;75.25;;;29.73;;
21458;SDS011;10891;49.350;19.386;2023-12-14T05:42:26;63.83;;;27.25;;
21458;SDS011;10891;49.350;19.386;2023-12-14T05:44:53;57.00;;;24.38;;
21458;SDS011;10891;49.350;19.386;2023-12-14T05:47:20;55.60;;;23.27;;
21458;SDS011;10891;49.350;19.386;2023-12-14T05:49:49;57.38;;;22.30;;
21458;SDS011;10891;49.350;19.386;2023-12-14T05:52:16;73.72;;;27.48;;
21458;SDS011;10891;49.350;19.386;2023-12-14T05:54:43;89.18;;;31.55;;
21458;SDS011;10891;49.350;19.386;2023-12-14T05:57:10;102.60;;;34.63;;
21458;SDS011;10891;49.350;19.386;2023-12-14T05:59:38;83.75;;;32.20;;
21458;SDS011;10891;49.350;19.386;2023-12-14T06:02:05;69.72;;;29.15;;
21458;SDS011;10891;49.350;19.386;2023-12-14T06:04:33;71.93;;;29.35;;
21458;SDS011;10891;49.350;19.386;2023-12-14T06:07:01;94.43;;;32.78;;
21458;SDS011;10891;49.350;19.386;2023-12-14T06:09:29;112.32;;;34.70;;
21458;SDS011;10891;49.350;19.386;2023-12-14T06:11:59;94.43;;;31.83;;
21458;SDS011;10891;49.350;19.386;2023-12-14T06:14:27;110.47;;;34.13;;
21458;SDS011;10891;49.350;19.386;2023-12-14T06:16:54;75.43;;;31.00;;
21458;SDS011;10891;49.350;19.386;2023-12-14T06:19:22;90.90;;;35.15;;
21458;SDS011;10891;49.350;19.386;2023-12-14T06:21:49;130.13;;;35.92;;
21458;SDS011;10891;49.350;19.386;2023-12-14T06:24:18;91.03;;;33.10;;
21458;SDS011;10891;49.350;19.386;2023-12-14T06:26:47;80.88;;;32.60;;
21458;SDS011;10891;49.350;19.386;2023-12-14T06:29:15;84.45;;;30.83;;
21458;SDS011;10891;49.350;19.386;2023-12-14T06:31:42;66.80;;;27.15;;
21458;SDS011;10891;49.350;19.386;2023-12-14T06:34:09;60.13;;;24.20;;
21458;SDS011;10891;49.350;19.386;2023-12-14T06:36:36;79.35;;;29.10;;
21458;SDS011;10891;49.350;19.386;2023-12-14T06:39:08;90.25;;;32.92;;
21458;SDS011;10891;49.350;19.386;2023-12-14T06:41:37;81.63;;;31.77;;
21458;SDS011;10891;49.350;19.386;2023-12-14T06:44:04;78.43;;;32.50;;
21458;SDS011;10891;49.350;19.386;2023-12-14T06:46:34;76.05;;;32.58;;
21458;SDS011;10891;49.350;19.386;2023-12-14T06:49:01;73.70;;;31.08;;
21458;SDS011;10891;49.350;19.386;2023-12-14T06:51:28;86.07;;;34.10;;
21458;SDS011;10891;49.350;19.386;2023-12-14T06:53:56;86.70;;;35.72;;
21458;SDS011;10891;49.350;19.386;2023-12-14T06:56:23;201.98;;;69.43;;
21458;SDS011;10891;49.350;19.386;2023-12-14T06:58:51;188.05;;;67.43;;
21458;SDS011;10891;49.350;19.386;2023-12-14T07:01:19;96.97;;;37.67;;
21458;SDS011;10891;49.350;19.386;2023-12-14T07:03:46;112.78;;;43.88;;
21458;SDS011;10891;49.350;19.386;2023-12-14T07:06:13;106.68;;;45.08;;
21458;SDS011;10891;49.350;19.386;2023-12-14T07:08:40;100.00;;;40.30;;
21458;SDS011;10891;49.350;19.386;2023-12-14T07:11:08;90.82;;;37.92;;
21458;SDS011;10891;49.350;19.386;2023-12-14T07:13:35;80.97;;;38.45;;
21458;SDS011;10891;49.350;19.386;2023-12-14T07:16:04;71.60;;;34.40;;
21458;SDS011;10891;49.350;19.386;2023-12-14T07:18:33;64.60;;;32.13;;
21458;SDS011;10891;49.350;19.386;2023-12-14T07:21:01;64.25;;;30.83;;
21458;SDS011;10891;49.350;19.386;2023-12-14T07:23:28;62.05;;;29.17;;
21458;SDS011;10891;49.350;19.386;2023-12-14T07:25:55;53.42;;;26.38;;
21458;SDS011;10891;49.350;19.386;2023-12-14T07:28:22;57.38;;;26.08;;
21458;SDS011;10891;49.350;19.386;2023-12-14T07:30:49;57.03;;;27.00;;
21458;SDS011;10891;49.350;19.386;2023-12-14T07:33:18;65.78;;;32.45;;
21458;SDS011;10891;49.350;19.386;2023-12-14T07:35:45;78.07;;;37.75;;
21458;SDS011;10891;49.350;19.386;2023-12-14T07:38:12;64.93;;;30.52;;
21458;SDS011;10891;49.350;19.386;2023-12-14T07:40:40;62.08;;;29.33;;
21458;SDS011;10891;49.350;19.386;2023-12-14T07:43:07;75.40;;;37.33;;
21458;SDS011;10891;49.350;19.386;2023-12-14T07:45:34;76.47;;;33.65;;
21458;SDS011;10891;49.350;19.386;2023-12-14T07:48:02;93.72;;;44.20;;
21458;SDS011;10891;49.350;19.386;2023-12-14T07:50:32;80.78;;;40.22;;
21458;SDS011;10891;49.350;19.386;2023-12-14T07:52:59;74.60;;;37.30;;
21458;SDS011;10891;49.350;19.386;2023-12-14T07:55:26;73.95;;;37.22;;
21458;SDS011;10891;49.350;19.386;2023-12-14T07:57:54;67.68;;;33.45;;
21458;SDS011;10891;49.350;19.386;2023-12-14T08:00:21;63.10;;;33.35;;
21458;SDS011;10891;49.350;19.386;2023-12-14T08:02:48;61.35;;;35.88;;
21458;SDS011;10891;49.350;19.386;2023-12-14T08:05:15;68.03;;;34.53;;
21458;SDS011;10891;49.350;19.386;2023-12-14T08:07:44;145.98;;;61.03;;
21458;SDS011;10891;49.350;19.386;2023-12-14T08:10:11;95.28;;;42.88;;
21458;SDS011;10891;49.350;19.386;2023-12-14T08:12:38;89.32;;;42.67;;
21458;SDS011;10891;49.350;19.386;2023-12-14T08:15:05;103.20;;;46.38;;
21458;SDS011;10891;49.350;19.386;2023-12-14T08:17:33;136.75;;;51.00;;
21458;SDS011;10891;49.350;19.386;2023-12-14T08:20:00;124.30;;;49.65;;
21458;SDS011;10891;49.350;19.386;2023-12-14T08:22:29;81.75;;;35.90;;
21458;SDS011;10891;49.350;19.386;2023-12-14T08:24:58;55.45;;;28.15;;
21458;SDS011;10891;49.350;19.386;2023-12-14T08:27:25;45.95;;;24.13;;
21458;SDS011;10891;49.350;19.386;2023-12-14T08:29:52;52.47;;;24.95;;
21458;SDS011;10891;49.350;19.386;2023-12-14T08:32:19;198.88;;;68.22;;
21458;SDS011;10891;49.350;19.386;2023-12-14T08:34:47;51.40;;;25.33;;
21458;SDS011;10891;49.350;19.386;2023-12-14T08:37:14;58.05;;;25.10;;
21458;SDS011;10891;49.350;19.386;2023-12-14T08:39:41;68.15;;;29.70;;
21458;SDS011;10891;49.350;19.386;2023-12-14T08:42:10;110.88;;;41.42;;
21458;SDS011;10891;49.350;19.386;2023-12-14T08:44:38;132.57;;;46.67;;
21458;SDS011;10891;49.350;19.386;2023-12-14T08:47:05;98.15;;;45.40;;
21458;SDS011;10891;49.350;19.386;2023-12-14T08:49:34;66.88;;;28.73;;
21458;SDS011;10891;49.350;19.386;2023-12-14T08:52:01;105.95;;;50.45;;
21458;SDS011;10891;49.350;19.386;2023-12-14T08:54:29;135.45;;;52.60;;
21458;SDS011;10891;49.350;19.386;2023-12-14T08:56:56;69.47;;;35.67;;
21458;SDS011;10891;49.350;19.386;2023-12-14T08:59:27;80.28;;;36.97;;
21458;SDS011;10891;49.350;19.386;2023-12-14T09:01:55;72.40;;;32.72;;
21458;SDS011;10891;49.350;19.386;2023-12-14T09:04:22;66.47;;;30.83;;
21458;SDS011;10891;49.350;19.386;2023-12-14T09:06:49;54.63;;;26.42;;
21458;SDS011;10891;49.350;19.386;2023-12-14T09:09:16;53.33;;;27.83;;
21458;SDS011;10891;49.350;19.386;2023-12-14T09:11:44;65.20;;;30.77;;
21458;SDS011;10891;49.350;19.386;2023-12-14T09:14:11;83.75;;;46.08;;
21458;SDS011;10891;49.350;19.386;2023-12-14T09:16:40;89.88;;;50.15;;
21458;SDS011;10891;49.350;19.386;2023-12-14T09:19:07;140.50;;;84.82;;
21458;SDS011;10891;49.350;19.386;2023-12-14T09:21:34;155.60;;;79.40;;
21458;SDS011;10891;49.350;19.386;2023-12-14T09:24:01;79.82;;;41.70;;
21458;SDS011;10891;49.350;19.386;2023-12-14T09:26:29;64.00;;;33.55;;
21458;SDS011;10891;49.350;19.386;2023-12-14T09:28:56;66.45;;;34.45;;
21458;SDS011;10891;49.350;19.386;2023-12-14T09:31:23;95.30;;;53.33;;
21458;SDS011;10891;49.350;19.386;2023-12-14T09:33:51;86.15;;;50.42;;
21458;SDS011;10891;49.350;19.386;2023-12-14T09:36:19;145.15;;;86.28;;
21458;SDS011;10891;49.350;19.386;2023-12-14T09:38:46;207.70;;;111.70;;
21458;SDS011;10891;49.350;19.386;2023-12-14T09:41:13;82.43;;;43.90;;
21458;SDS011;10891;49.350;19.386;2023-12-14T09:43:40;65.82;;;36.78;;
21458;SDS011;10891;49.350;19.386;2023-12-14T09:46:08;76.40;;;39.10;;
21458;SDS011;10891;49.350;19.386;2023-12-14T09:48:36;76.50;;;41.47;;
21458;SDS011;10891;49.350;19.386;2023-12-14T09:51:05;83.40;;;42.42;;
21458;SDS011;10891;49.350;19.386;2023-12-14T09:53:33;90.30;;;44.10;;
21458;SDS011;10891;49.350;19.386;2023-12-14T09:56:00;242.70;;;109.70;;
21458;SDS011;10891;49.350;19.386;2023-12-14T09:58:27;226.75;;;101.75;;
21458;SDS011;10891;49.350;19.386;2023-12-14T10:00:58;108.53;;;51.45;;
21458;SDS011;10891;49.350;19.386;2023-12-14T10:03:27;314.55;;;143.75;;
21458;SDS011;10891;49.350;19.386;2023-12-14T10:05:54;109.38;;;61.20;;
21458;SDS011;10891;49.350;19.386;2023-12-14T10:08:23;48.55;;;28.42;;
21458;SDS011;10891;49.350;19.386;2023-12-14T10:10:51;44.75;;;25.05;;
21458;SDS011;10891;49.350;19.386;2023-12-14T10:13:22;65.90;;;34.47;;
21458;SDS011;10891;49.350;19.386;2023-12-14T10:15:50;78.05;;;42.83;;
21458;SDS011;10891;49.350;19.386;2023-12-14T10:18:21;78.70;;;42.90;;
21458;SDS011;10891;49.350;19.386;2023-12-14T10:20:49;90.20;;;44.80;;
21458;SDS011;10891;49.350;19.386;2023-12-14T10:23:16;84.90;;;45.85;;
21458;SDS011;10891;49.350;19.386;2023-12-14T10:25:45;76.47;;;41.67;;
21458;SDS011;10891;49.350;19.386;2023-12-14T10:28:13;69.28;;;37.95;;
21458;SDS011;10891;49.350;19.386;2023-12-14T10:30:40;74.57;;;37.17;;
21458;SDS011;10891;49.350;19.386;2023-12-14T10:33:07;79.72;;;39.58;;
21458;SDS011;10891;49.350;19.386;2023-12-14T10:35:35;92.45;;;44.25;;
21458;SDS011;10891;49.350;19.386;2023-12-14T10:38:02;76.78;;;38.97;;
21458;SDS011;10891;49.350;19.386;2023-12-14T10:40:30;99.00;;;45.88;;
21458;SDS011;10891;49.350;19.386;2023-12-14T10:42:59;144.07;;;64.10;;
21458;SDS011;10891;49.350;19.386;2023-12-14T10:45:28;103.85;;;52.28;;
21458;SDS011;10891;49.350;19.386;2023-12-14T10:47:56;128.38;;;62.92;;
21458;SDS011;10891;49.350;19.386;2023-12-14T10:50:25;215.68;;;98.45;;
21458;SDS011;10891;49.350;19.386;2023-12-14T10:52:53;241.45;;;110.00;;
21458;SDS011;10891;49.350;19.386;2023-12-14T10:55:21;300.40;;;131.60;;
21458;SDS011;10891;49.350;19.386;2023-12-14T10:57:51;166.73;;;79.85;;
21458;SDS011;10891;49.350;19.386;2023-12-14T11:00:19;100.55;;;49.90;;
21458;SDS011;10891;49.350;19.386;2023-12-14T11:02:47;119.93;;;58.20;;
21458;SDS011;10891;49.350;19.386;2023-12-14T11:05:15;225.15;;;107.00;;
21458;SDS011;10891;49.350;19.386;2023-12-14T11:07:48;264.10;;;127.55;;
21458;SDS011;10891;49.350;19.386;2023-12-14T11:10:19;142.52;;;67.53;;
21458;SDS011;10891;49.350;19.386;2023-12-14T11:12:51;116.40;;;54.83;;
21458;SDS011;10891;49.350;19.386;2023-12-14T11:15:20;141.15;;;68.43;;
21458;SDS011;10891;49.350;19.386;2023-12-14T11:20:40;108.57;;;54.30;;
21458;SDS011;10891;49.350;19.386;2023-12-14T11:23:14;106.45;;;51.70;;
21458;SDS011;10891;49.350;19.386;2023-12-14T11:25:42;107.93;;;54.35;;
21458;SDS011;10891;49.350;19.386;2023-12-14T11:28:10;230.32;;;113.07;;
21458;SDS011;10891;49.350;19.386;2023-12-14T11:30:39;133.38;;;69.40;;
21458;SDS011;10891;49.350;19.386;2023-12-14T11:33:06;171.07;;;86.25;;
21458;SDS011;10891;49.350;19.386;2023-12-14T11:35:33;244.77;;;129.93;;
21458;SDS011;10891;49.350;19.386;2023-12-14T11:38:01;144.63;;;72.50;;
21458;SDS011;10891;49.350;19.386;2023-12-14T11:40:35;147.50;;;66.75;;
21458;SDS011;10891;49.350;19.386;2023-12-14T11:43:02;110.57;;;54.55;;
21458;SDS011;10891;49.350;19.386;2023-12-14T11:45:32;117.43;;;56.75;;
21458;SDS011;10891;49.350;19.386;2023-12-14T11:48:02;116.55;;;56.95;;
21458;SDS011;10891;49.350;19.386;2023-12-14T11:50:31;194.77;;;89.57;;
21458;SDS011;10891;49.350;19.386;2023-12-14T11:52:59;104.07;;;50.17;;
21458;SDS011;10891;49.350;19.386;2023-12-14T11:55:26;126.88;;;57.92;;
21458;SDS011;10891;49.350;19.386;2023-12-14T11:57:53;177.32;;;88.10;;
21458;SDS011;10891;49.350;19.386;2023-12-14T12:00:23;133.85;;;63.17;;
21458;SDS011;10891;49.350;19.386;2023-12-14T12:02:51;124.72;;;63.78;;
21458;SDS011;10891;49.350;19.386;2023-12-14T12:05:19;122.82;;;60.05;;
21458;SDS011;10891;49.350;19.386;2023-12-14T12:08:01;213.95;;;105.65;;
21458;SDS011;10891;49.350;19.386;2023-12-14T12:10:28;115.57;;;59.50;;
21458;SDS011;10891;49.350;19.386;2023-12-14T12:12:58;102.63;;;56.97;;
21458;SDS011;10891;49.350;19.386;2023-12-14T12:15:25;86.68;;;43.42;;
21458;SDS011;10891;49.350;19.386;2023-12-14T12:17:52;69.30;;;39.95;;
21458;SDS011;10891;49.350;19.386;2023-12-14T12:20:21;78.00;;;38.58;;
21458;SDS011;10891;49.350;19.386;2023-12-14T12:22:48;86.57;;;45.40;;
21458;SDS011;10891;49.350;19.386;2023-12-14T12:25:15;237.65;;;125.57;;
21458;SDS011;10891;49.350;19.386;2023-12-14T12:27:42;148.43;;;82.95;;
21458;SDS011;10891;49.350;19.386;2023-12-14T12:30:10;71.07;;;38.60;;
21458;SDS011;10891;49.350;19.386;2023-12-14T12:32:38;78.57;;;42.00;;
21458;SDS011;10891;49.350;19.386;2023-12-14T12:35:05;90.43;;;48.85;;
21458;SDS011;10891;49.350;19.386;2023-12-14T12:37:34;76.80;;;43.58;;
21458;SDS011;10891;49.350;19.386;2023-12-14T12:40:01;98.00;;;50.08;;
21458;SDS011;10891;49.350;19.386;2023-12-14T12:42:29;77.03;;;41.80;;
21458;SDS011;10891;49.350;19.386;2023-12-14T12:44:57;98.03;;;52.50;;
21458;SDS011;10891;49.350;19.386;2023-12-14T12:47:25;97.05;;;52.80;;
21458;SDS011;10891;49.350;19.386;2023-12-14T12:49:53;96.18;;;52.75;;
21458;SDS011;10891;49.350;19.386;2023-12-14T12:52:21;80.90;;;48.88;;
21458;SDS011;10891;49.350;19.386;2023-12-14T12:54:50;24.77;;;15.90;;
21458;SDS011;10891;49.350;19.386;2023-12-14T12:57:18;35.05;;;21.58;;
21458;SDS011;10891;49.350;19.386;2023-12-14T12:59:46;41.65;;;25.50;;
21458;SDS011;10891;49.350;19.386;2023-12-14T13:02:14;41.72;;;27.55;;
21458;SDS011;10891;49.350;19.386;2023-12-14T13:04:42;34.83;;;22.77;;
21458;SDS011;10891;49.350;19.386;2023-12-14T13:07:09;25.73;;;15.73;;
21458;SDS011;10891;49.350;19.386;2023-12-14T13:09:38;18.85;;;11.40;;
21458;SDS011;10891;49.350;19.386;2023-12-14T13:12:10;27.40;;;16.10;;
21458;SDS011;10891;49.350;19.386;2023-12-14T13:14:39;27.73;;;16.35;;
21458;SDS011;10891;49.350;19.386;2023-12-14T13:17:07;31.67;;;18.80;;
21458;SDS011;10891;49.350;19.386;2023-12-14T13:19:34;57.70;;;32.80;;
21458;SDS011;10891;49.350;19.386;2023-12-14T13:22:02;29.92;;;16.85;;
21458;SDS011;10891;49.350;19.386;2023-12-14T13:24:29;23.00;;;13.88;;
21458;SDS011;10891;49.350;19.386;2023-12-14T13:26:57;31.40;;;19.85;;
21458;SDS011;10891;49.350;19.386;2023-12-14T13:29:25;113.53;;;61.55;;
21458;SDS011;10891;49.350;19.386;2023-12-14T13:31:52;74.68;;;40.20;;
21458;SDS011;10891;49.350;19.386;2023-12-14T13:34:19;36.08;;;21.20;;
21458;SDS011;10891;49.350;19.386;2023-12-14T13:36:47;57.58;;;30.40;;
21458;SDS011;10891;49.350;19.386;2023-12-14T13:39:14;102.68;;;48.65;;
21458;SDS011;10891;49.350;19.386;2023-12-14T13:41:42;96.40;;;53.90;;
21458;SDS011;10891;49.350;19.386;2023-12-14T13:44:09;62.38;;;35.22;;
21458;SDS011;10891;49.350;19.386;2023-12-14T13:46:38;82.32;;;45.20;;
21458;SDS011;10891;49.350;19.386;2023-12-14T13:49:06;44.03;;;23.95;;
21458;SDS011;10891;49.350;19.386;2023-12-14T13:51:33;62.28;;;33.97;;
21458;SDS011;10891;49.350;19.386;2023-12-14T13:54:01;33.38;;;20.38;;
21458;SDS011;10891;49.350;19.386;2023-12-14T13:56:28;73.00;;;39.10;;
21458;SDS011;10891;49.350;19.386;2023-12-14T13:58:55;37.38;;;21.17;;
21458;SDS011;10891;49.350;19.386;2023-12-14T14:01:22;52.45;;;28.60;;
21458;SDS011;10891;49.350;19.386;2023-12-14T14:03:51;65.15;;;36.42;;
21458;SDS011;10891;49.350;19.386;2023-12-14T14:06:18;50.00;;;29.20;;